Lawrence Municipal Airport Lawrence US
ICAO: KLWM
IATA: LWM
Category: Medium
Scheduled Services: No

Elevation: 148 ft
TransAlt. 18000 ft.

Airport Communications:
BOSTON APP/DEP:124.4
ASOS:126.75
ATIS:126.75
CLNC DEL:124.3
CTAF:119.25
GND:124.3
BRIDGEPORT RDO:112.5
TWR:119.25
UNICOM:122.8

KLWM Zoom In..

Runways:

(A) RW 05 length 5001 ft width 150 ft
ILS 111.70 / hdg 53

(B) RW 14 length 3900 ft width 100 ft
---- / hdg 137

(C) RW 23 length 5001 ft width 150 ft
---- / hdg 233

(D) RW 32 length 3900 ft width 100 ft
---- / hdg 317

Location; KLWM
Day. 24 / Time. 01.54 Zulu
* Altimeter: 29.55
* Temperature: 02° c. 35.6°f.
* Wind from: 210° Speed 06 kn.
Dewpoint: 01° c.
Visibility: 8 Statute Miles.
Clouds: Overcast 4800 ft.

KLWM 240154Z 21006KT 8SM OVC048 02/01 A2955 RMK AO2 RAE36 SLP009 P0000 T00220006


Wind From 210°
Speed 06 kn.

YouTube Music Video
 
jpsmedia.com for Web Design  worldairports.se 2018   terms of use